createdAt,value
2023-03-04T00:00:56.475Z,-2.26
2023-03-04T00:04:03.466Z,-2.33
2023-03-04T00:07:09.449Z,-2.41
2023-03-04T00:10:16.438Z,-2.35
2023-03-04T00:13:22.501Z,-2.48
2023-03-04T00:16:31.995Z,-2.51
2023-03-04T00:19:38.026Z,-2.68
2023-03-04T00:22:44.752Z,-2.53
2023-03-04T00:25:50.692Z,-2.50
2023-03-04T00:28:57.512Z,-2.53
2023-03-04T00:32:08.267Z,-2.43
2023-03-04T00:35:15.082Z,-2.57
2023-03-04T00:38:21.049Z,-2.65
2023-03-04T00:41:27.980Z,-2.61
2023-03-04T00:44:33.959Z,-2.44
2023-03-04T00:47:43.459Z,-2.45
2023-03-04T00:50:49.461Z,-2.50
2023-03-04T00:53:56.206Z,-2.53
2023-03-04T00:57:02.269Z,-2.70
2023-03-04T01:00:11.467Z,-2.73
2023-03-04T01:03:20.051Z,-2.70
2023-03-04T01:06:27.128Z,-2.83
2023-03-04T01:09:33.340Z,-2.92
2023-03-04T01:12:40.402Z,-2.92
2023-03-04T01:15:46.683Z,-2.96
2023-03-04T01:18:56.234Z,-2.79
2023-03-04T01:22:02.177Z,-2.64
2023-03-04T01:25:11.201Z,-2.82
2023-03-04T01:28:17.670Z,-2.74
2023-03-04T01:31:24.529Z,-2.71
2023-03-04T01:34:33.770Z,-2.78
2023-03-04T01:37:40.953Z,-2.90
2023-03-04T01:40:48.764Z,-2.82
2023-03-04T01:43:57.352Z,-2.77
2023-03-04T01:47:03.627Z,-2.72
2023-03-04T01:50:25.138Z,-2.76
2023-03-04T01:53:39.796Z,-2.89
2023-03-04T01:56:52.219Z,-2.81
2023-03-04T02:00:26.715Z,-2.81
2023-03-04T02:03:34.120Z,-2.83
2023-03-04T02:06:46.021Z,-2.92
2023-03-04T02:09:56.632Z,-2.87
2023-03-04T02:13:04.548Z,-2.83
2023-03-04T02:16:11.621Z,-2.71
2023-03-04T02:19:38.753Z,-2.73
2023-03-04T02:23:11.070Z,-2.62
2023-03-04T02:26:23.205Z,-2.61
2023-03-04T02:29:32.570Z,-2.62
2023-03-04T02:32:38.937Z,-2.62
2023-03-04T02:35:46.084Z,-2.61
2023-03-04T02:38:54.558Z,-2.57
2023-03-04T02:42:06.316Z,-2.48
2023-03-04T02:45:40.558Z,-2.69
2023-03-04T02:48:47.924Z,-2.68
2023-03-04T02:52:01.468Z,-2.73
2023-03-04T02:55:09.558Z,-2.74
2023-03-04T02:58:19.075Z,-2.80
2023-03-04T03:01:30.803Z,-2.77
2023-03-04T03:04:41.538Z,-2.71
2023-03-04T03:07:51.262Z,-2.67
2023-03-04T03:10:58.185Z,-2.84
2023-03-04T03:14:08.666Z,-2.89
2023-03-04T03:17:15.456Z,-2.94
2023-03-04T03:20:28.893Z,-3.03
2023-03-04T03:23:35.624Z,-3.03
2023-03-04T03:26:42.489Z,-3.10
2023-03-04T03:29:51.998Z,-3.16
2023-03-04T03:33:09.879Z,-3.01
2023-03-04T03:36:25.233Z,-3.06
2023-03-04T03:39:31.258Z,-3.07
2023-03-04T03:42:38.064Z,-2.95
2023-03-04T03:45:46.948Z,-2.86
2023-03-04T03:48:53.739Z,-2.93
2023-03-04T03:51:59.934Z,-2.94
2023-03-04T03:55:10.959Z,-2.82
2023-03-04T03:58:17.342Z,-2.86
2023-03-04T04:01:26.742Z,-2.90
2023-03-04T04:04:32.695Z,-2.94
2023-03-04T04:07:41.973Z,-2.88
2023-03-04T04:10:48.102Z,-2.88
2023-03-04T04:13:54.823Z,-2.91
2023-03-04T04:17:04.049Z,-2.91
2023-03-04T04:20:13.703Z,-3.07
2023-03-04T04:23:19.842Z,-2.99
2023-03-04T04:26:29.128Z,-2.88
2023-03-04T04:29:35.054Z,-2.94
2023-03-04T04:32:44.377Z,-2.93
2023-03-04T04:35:52.513Z,-2.87
2023-03-04T04:38:59.267Z,-2.78
2023-03-04T04:42:05.546Z,-2.79
2023-03-04T04:45:14.085Z,-2.95
2023-03-04T04:48:22.671Z,-3.00
2023-03-04T04:51:29.810Z,-3.15
2023-03-04T04:54:36.150Z,-3.11
2023-03-04T04:57:42.950Z,-3.10
2023-03-04T05:00:52.890Z,-3.10
2023-03-04T05:04:02.279Z,-3.07
2023-03-04T05:07:08.425Z,-3.07
2023-03-04T05:10:16.017Z,-3.17
2023-03-04T05:13:26.772Z,-3.14
2023-03-04T05:16:34.248Z,-3.23
2023-03-04T05:19:49.924Z,-3.36
2023-03-04T05:22:59.482Z,-3.39
2023-03-04T05:26:09.276Z,-3.36
2023-03-04T05:29:18.004Z,-3.40
2023-03-04T05:32:24.122Z,-3.40
2023-03-04T05:35:38.567Z,-3.26
2023-03-04T05:38:45.855Z,-3.23
2023-03-04T05:41:52.514Z,-3.31
2023-03-04T05:44:58.631Z,-3.28
2023-03-04T05:48:13.461Z,-3.27
2023-03-04T05:51:26.269Z,-3.16
2023-03-04T05:54:35.025Z,-3.15
2023-03-04T05:57:40.959Z,-3.22
2023-03-04T06:00:50.700Z,-3.29
2023-03-04T06:03:56.777Z,-3.29
2023-03-04T06:07:09.850Z,-3.39
2023-03-04T06:10:24.649Z,-3.27
2023-03-04T06:13:31.664Z,-3.23
2023-03-04T06:16:37.609Z,-3.20
2023-03-04T06:19:44.773Z,-3.20
2023-03-04T06:22:53.915Z,-3.23
2023-03-04T06:26:04.003Z,-3.15
2023-03-04T06:29:10.656Z,-3.20
2023-03-04T06:32:17.609Z,-3.17
2023-03-04T06:35:24.649Z,-3.02
2023-03-04T06:38:34.394Z,-3.15
2023-03-04T06:41:42.010Z,-3.16
2023-03-04T06:44:54.903Z,-3.17
2023-03-04T06:48:01.301Z,-3.22
2023-03-04T06:51:19.915Z,-3.08
2023-03-04T06:54:28.995Z,-3.04
2023-03-04T06:57:35.696Z,-3.12
2023-03-04T07:00:41.516Z,-3.10
2023-03-04T07:03:49.921Z,-3.23
2023-03-04T07:07:05.911Z,-3.32
2023-03-04T07:10:27.420Z,-3.21
2023-03-04T07:13:38.368Z,-3.16
2023-03-04T07:16:45.326Z,-2.93
2023-03-04T07:19:51.751Z,-2.94
2023-03-04T07:22:58.527Z,-2.98
2023-03-04T07:26:07.313Z,-2.65
2023-03-04T07:29:14.050Z,-2.64
2023-03-04T07:32:20.258Z,-2.62
2023-03-04T07:35:26.933Z,-2.48
2023-03-04T07:38:32.867Z,-2.45
2023-03-04T07:41:43.306Z,-2.55
2023-03-04T07:45:00.377Z,-2.56
2023-03-04T07:48:30.936Z,-2.65
2023-03-04T07:51:44.694Z,-2.62
2023-03-04T07:54:51.489Z,-2.44
2023-03-04T07:58:01.863Z,-2.44
2023-03-04T08:01:13.604Z,-2.41
2023-03-04T08:04:19.685Z,-2.39
2023-03-04T08:07:28.957Z,-2.21
2023-03-04T08:10:34.961Z,-2.28
2023-03-04T08:13:45.106Z,-2.28
2023-03-04T08:16:51.089Z,-2.31
2023-03-04T08:19:57.910Z,-2.48
2023-03-04T08:23:03.772Z,-2.40
2023-03-04T08:26:13.968Z,-2.31
2023-03-04T08:29:26.318Z,-2.38
2023-03-04T08:32:33.501Z,-2.32
2023-03-04T08:35:46.811Z,-2.58
2023-03-04T08:38:53.720Z,-2.44
2023-03-04T08:41:59.593Z,-2.43
2023-03-04T08:45:16.948Z,-2.19
2023-03-04T08:48:23.767Z,-2.27
2023-03-04T08:51:35.936Z,-2.16
2023-03-04T08:54:41.782Z,-2.20
2023-03-04T08:57:48.551Z,-2.19
2023-03-04T09:01:09.754Z,-2.07
2023-03-04T09:04:16.646Z,-2.09
2023-03-04T09:07:22.647Z,-2.19
2023-03-04T09:10:30.180Z,-2.18
2023-03-04T09:13:37.394Z,-2.13
2023-03-04T09:16:46.648Z,-2.06
2023-03-04T09:19:52.591Z,-2.18
2023-03-04T09:23:02.563Z,-2.12
2023-03-04T09:26:19.334Z,-2.07
2023-03-04T09:29:26.554Z,-2.02
2023-03-04T09:32:47.837Z,-2.06
2023-03-04T09:35:59.228Z,-2.03
2023-03-04T09:39:07.176Z,-2.07
2023-03-04T09:42:29.125Z,-2.03
2023-03-04T09:45:48.724Z,-1.97
2023-03-04T09:49:00.186Z,-1.78
2023-03-04T09:52:27.025Z,-1.69
2023-03-04T09:55:40.742Z,-1.92
2023-03-04T09:59:05.706Z,-2.09
2023-03-04T10:02:38.096Z,-2.01
2023-03-04T10:05:58.968Z,-1.79
2023-03-04T10:09:16.691Z,-1.73
2023-03-04T10:12:34.716Z,-1.83
2023-03-04T10:15:46.504Z,-1.85
2023-03-04T10:19:08.092Z,-1.80
2023-03-04T10:22:39.453Z,-1.82
2023-03-04T10:25:53.939Z,-2.06
2023-03-04T10:29:03.179Z,-1.99
2023-03-04T10:32:12.917Z,-1.97
2023-03-04T10:35:39.415Z,-2.01
2023-03-04T10:38:48.993Z,-2.22
2023-03-04T10:42:03.795Z,-2.20
2023-03-04T10:45:26.212Z,-2.04
2023-03-04T10:48:35.467Z,-2.32
2023-03-04T10:51:47.973Z,-2.41
2023-03-04T10:55:01.657Z,-2.27
2023-03-04T10:58:10.529Z,-2.39
2023-03-04T11:01:26.713Z,-2.51
2023-03-04T11:04:37.980Z,-2.44
2023-03-04T11:07:55.563Z,-2.32
2023-03-04T11:11:04.902Z,-2.19
2023-03-04T11:14:26.277Z,-2.00
2023-03-04T11:17:48.645Z,-2.06
2023-03-04T11:21:01.181Z,-1.83
2023-03-04T11:24:29.204Z,-1.57
2023-03-04T11:27:54.406Z,-1.52
2023-03-04T11:31:07.115Z,-1.47
2023-03-04T11:34:35.062Z,-1.63
2023-03-04T11:37:49.736Z,-1.69
2023-03-04T11:41:04.753Z,-1.61
2023-03-04T11:44:18.043Z,-1.66
2023-03-04T11:47:48.161Z,-1.61
2023-03-04T11:51:05.906Z,-1.55
2023-03-04T11:54:32.961Z,-1.55
2023-03-04T11:57:59.545Z,-1.78
2023-03-04T12:01:16.159Z,-1.64
2023-03-04T12:04:52.046Z,-1.70
2023-03-04T12:08:38.118Z,-1.77
2023-03-04T12:12:12.899Z,-1.61
2023-03-04T12:15:32.013Z,-1.43
2023-03-04T12:19:06.396Z,-1.50
2023-03-04T12:22:34.366Z,-1.47
2023-03-04T12:26:08.384Z,-1.48
2023-03-04T12:29:38.684Z,-1.43
2023-03-04T12:33:01.300Z,-1.30
2023-03-04T12:36:37.630Z,-1.32
2023-03-04T12:40:27.982Z,-0.81
2023-03-04T12:43:50.693Z,-0.66
2023-03-04T12:47:37.356Z,-0.66
2023-03-04T12:51:07.151Z,-0.50
2023-03-04T12:54:32.076Z,-0.61
2023-03-04T12:57:41.239Z,-0.51
2023-03-04T13:01:06.259Z,-0.62
2023-03-04T13:04:26.913Z,-0.50
2023-03-04T13:07:53.141Z,-0.40
2023-03-04T13:11:47.585Z,-0.21
2023-03-04T13:15:35.091Z,-0.22
2023-03-04T13:18:42.284Z,-0.17
2023-03-04T13:21:55.220Z,-0.34
2023-03-04T13:25:26.267Z,-0.31
2023-03-04T13:28:38.031Z,-0.29
2023-03-04T13:32:04.481Z,-0.29
2023-03-04T13:35:50.738Z,-0.27
2023-03-04T13:39:08.907Z,-0.32
2023-03-04T13:42:44.417Z,-0.33
2023-03-04T13:45:53.943Z,-0.21
2023-03-04T13:49:18.749Z,-0.13
2023-03-04T13:52:46.760Z,-0.20
2023-03-04T13:56:26.407Z,-0.25
2023-03-04T13:59:48.945Z,-0.31
2023-03-04T14:02:57.458Z,-0.30
2023-03-04T14:06:22.921Z,-0.35
2023-03-04T14:09:32.146Z,-0.29
2023-03-04T14:12:44.558Z,-0.33
2023-03-04T14:16:00.054Z,-0.33
2023-03-04T14:19:19.022Z,-0.45
2023-03-04T14:22:31.145Z,-0.41
2023-03-04T14:25:39.297Z,-0.46
2023-03-04T14:28:51.864Z,-0.53
2023-03-04T14:32:01.585Z,-0.42
2023-03-04T14:35:23.119Z,-0.41
2023-03-04T14:38:36.392Z,-0.41
2023-03-04T14:41:46.233Z,-0.34
2023-03-04T14:44:56.211Z,-0.22
2023-03-04T14:48:09.319Z,-0.23
2023-03-04T14:51:41.767Z,-0.40
2023-03-04T14:55:03.569Z,-0.55
2023-03-04T14:58:27.011Z,-0.42
2023-03-04T15:01:37.752Z,-0.54
2023-03-04T15:04:44.695Z,-0.55
2023-03-04T15:08:00.429Z,-0.48
2023-03-04T15:11:11.313Z,-0.49
2023-03-04T15:14:45.679Z,-0.46
2023-03-04T15:18:01.621Z,-0.52
2023-03-04T15:21:36.985Z,-0.49
2023-03-04T15:24:46.302Z,-0.46
2023-03-04T15:27:54.352Z,-0.51
2023-03-04T15:31:01.228Z,-0.39
2023-03-04T15:34:16.159Z,-0.48
2023-03-04T15:37:29.666Z,-0.40
2023-03-04T15:40:43.554Z,-0.59
2023-03-04T15:43:50.518Z,-0.60
2023-03-04T15:46:56.553Z,-0.65
2023-03-04T15:50:03.851Z,-0.67
2023-03-04T15:53:18.386Z,-0.71
2023-03-04T15:56:31.298Z,-0.79
2023-03-04T15:59:37.402Z,-0.75
2023-03-04T16:02:45.037Z,-0.84
2023-03-04T16:05:54.836Z,-0.83
2023-03-04T16:09:07.096Z,-0.81
2023-03-04T16:12:17.867Z,-0.93
2023-03-04T16:15:29.055Z,-0.80
2023-03-04T16:18:35.108Z,-0.84
2023-03-04T16:21:42.165Z,-0.88
2023-03-04T16:24:48.401Z,-0.88
2023-03-04T16:28:02.865Z,-0.90
2023-03-04T16:31:09.433Z,-0.90
2023-03-04T16:34:18.713Z,-0.83
2023-03-04T16:37:25.046Z,-0.80
2023-03-04T16:40:34.588Z,-0.77
2023-03-04T16:43:44.108Z,-0.64
2023-03-04T16:46:50.912Z,-0.59
2023-03-04T16:49:57.875Z,-0.83
2023-03-04T16:53:04.925Z,-0.81
2023-03-04T16:56:18.588Z,-0.86
2023-03-04T16:59:31.593Z,-0.89
2023-03-04T17:02:37.656Z,-0.96
2023-03-04T17:05:44.578Z,-0.83
2023-03-04T17:08:51.210Z,-0.89
2023-03-04T17:11:59.988Z,-0.93
2023-03-04T17:15:10.917Z,-1.06
2023-03-04T17:18:17.842Z,-1.04
2023-03-04T17:21:28.002Z,-1.00
2023-03-04T17:24:35.450Z,-0.99
2023-03-04T17:27:41.941Z,-1.08
2023-03-04T17:30:51.497Z,-0.99
2023-03-04T17:33:57.573Z,-0.88
2023-03-04T17:37:04.496Z,-0.98
2023-03-04T17:40:15.193Z,-1.02
2023-03-04T17:43:22.227Z,-1.07
2023-03-04T17:46:33.447Z,-1.18
2023-03-04T17:49:44.787Z,-1.02
2023-03-04T17:52:50.809Z,-1.05
2023-03-04T17:56:02.215Z,-1.02
2023-03-04T17:59:15.589Z,-0.94
2023-03-04T18:02:25.298Z,-0.96
2023-03-04T18:05:31.330Z,-0.79
2023-03-04T18:08:38.255Z,-0.71
2023-03-04T18:11:45.512Z,-0.71
2023-03-04T18:14:52.384Z,-0.64
2023-03-04T18:18:01.071Z,-0.68
2023-03-04T18:21:08.951Z,-0.56
2023-03-04T18:24:18.039Z,-0.54
2023-03-04T18:27:25.099Z,-0.58
2023-03-04T18:30:31.236Z,-0.56
2023-03-04T18:33:41.960Z,-0.59
2023-03-04T18:36:47.917Z,-0.56
2023-03-04T18:39:54.777Z,-0.68
2023-03-04T18:43:01.021Z,-0.53
2023-03-04T18:46:14.897Z,-0.44
2023-03-04T18:49:25.175Z,-0.45
2023-03-04T18:52:32.130Z,-0.49
2023-03-04T18:55:38.153Z,-0.35
2023-03-04T18:58:50.624Z,-0.32
2023-03-04T19:01:58.765Z,-0.31
2023-03-04T19:05:15.824Z,-0.39
2023-03-04T19:08:21.936Z,-0.24
2023-03-04T19:11:30.152Z,-0.17
2023-03-04T19:14:36.804Z,-0.05
2023-03-04T19:17:45.545Z,0.04
2023-03-04T19:20:54.358Z,0.09
2023-03-04T19:24:01.615Z,0.26
2023-03-04T19:27:08.321Z,0.16
2023-03-04T19:30:18.964Z,0.20
2023-03-04T19:33:26.801Z,0.32
2023-03-04T19:36:38.701Z,0.39
2023-03-04T19:39:46.180Z,0.45
2023-03-04T19:42:57.069Z,0.42
2023-03-04T19:46:03.220Z,0.40
2023-03-04T19:49:10.574Z,0.43
2023-03-04T19:52:19.329Z,0.44
2023-03-04T19:55:26.377Z,0.32
2023-03-04T19:58:32.440Z,0.29
2023-03-04T20:01:40.972Z,0.24
2023-03-04T20:04:47.202Z,0.29
2023-03-04T20:07:57.024Z,0.30
2023-03-04T20:11:03.189Z,0.25
2023-03-04T20:14:10.301Z,0.29
2023-03-04T20:17:22.505Z,0.35
2023-03-04T20:20:33.232Z,0.31
2023-03-04T20:23:41.993Z,0.34
2023-03-04T20:26:49.381Z,0.27
2023-03-04T20:30:04.255Z,0.19
2023-03-04T20:33:25.699Z,0.15
2023-03-04T20:36:34.769Z,0.21
2023-03-04T20:39:44.569Z,0.20
2023-03-04T20:42:50.971Z,0.11
2023-03-04T20:45:58.085Z,0.18
2023-03-04T20:49:08.044Z,0.22
2023-03-04T20:52:34.135Z,0.24
2023-03-04T20:55:54.100Z,0.23
2023-03-04T20:59:15.788Z,0.23
2023-03-04T21:02:23.720Z,0.26
2023-03-04T21:05:30.599Z,0.27
2023-03-04T21:08:36.622Z,0.31
2023-03-04T21:11:48.401Z,0.23
2023-03-04T21:14:54.398Z,0.32
2023-03-04T21:18:01.169Z,0.31
2023-03-04T21:21:14.419Z,0.15
2023-03-04T21:24:29.479Z,0.30
2023-03-04T21:27:42.791Z,0.38
2023-03-04T21:30:49.826Z,0.38
2023-03-04T21:34:00.441Z,0.43
2023-03-04T21:37:09.203Z,0.30
2023-03-04T21:40:21.164Z,0.23
2023-03-04T21:43:36.724Z,0.21
2023-03-04T21:46:49.243Z,0.26
2023-03-04T21:50:03.759Z,0.18
2023-03-04T21:53:09.826Z,0.25
2023-03-04T21:56:17.503Z,0.28
2023-03-04T21:59:35.548Z,0.18
2023-03-04T22:02:42.776Z,-0.46
2023-03-04T22:05:51.638Z,-0.75
2023-03-04T22:08:59.950Z,-1.23
2023-03-04T22:12:06.207Z,-1.25
2023-03-04T22:15:15.879Z,-1.15
2023-03-04T22:18:21.864Z,-1.18
2023-03-04T22:21:30.616Z,-1.00
2023-03-04T22:24:36.710Z,-0.89
2023-03-04T22:27:43.696Z,-0.96
2023-03-04T22:30:52.399Z,-0.89
2023-03-04T22:34:00.270Z,-0.95
2023-03-04T22:37:09.514Z,-0.92
2023-03-04T22:40:18.104Z,-0.86
2023-03-04T22:43:24.090Z,-0.80
2023-03-04T22:46:43.915Z,-0.85
2023-03-04T22:49:49.953Z,-1.00
2023-03-04T22:52:59.776Z,-1.20
2023-03-04T22:56:11.220Z,-1.21
2023-03-04T22:59:18.044Z,-1.29
2023-03-04T23:02:27.128Z,-1.38
2023-03-04T23:05:36.410Z,-1.42
2023-03-04T23:08:46.489Z,-1.39
2023-03-04T23:11:58.832Z,-1.31
2023-03-04T23:15:08.523Z,-1.30
2023-03-04T23:18:18.224Z,-1.24
2023-03-04T23:21:33.982Z,-1.10
2023-03-04T23:24:42.583Z,-1.14
2023-03-04T23:27:51.220Z,-1.12
2023-03-04T23:30:58.315Z,-1.13
2023-03-04T23:34:08.149Z,-1.25
2023-03-04T23:37:14.946Z,-1.20
2023-03-04T23:40:21.400Z,-1.16
2023-03-04T23:43:30.202Z,-1.09
2023-03-04T23:46:37.922Z,-1.04
2023-03-04T23:49:47.423Z,-0.98
2023-03-04T23:52:53.543Z,-1.09
2023-03-04T23:56:00.330Z,-1.02
2023-03-04T23:59:07.973Z,-1.06
